sensor_id;sensor_type;location;lat;lon;timestamp;P1;durP1;ratioP1;P2;durP2;ratioP2
54517;SDS011;40423;53.176;6.002;2023-07-22T00:00:49;7.05;;;2.78;;
54517;SDS011;40423;53.176;6.002;2023-07-22T00:03:15;7.32;;;2.80;;
54517;SDS011;40423;53.176;6.002;2023-07-22T00:05:41;4.55;;;3.00;;
54517;SDS011;40423;53.176;6.002;2023-07-22T00:08:08;4.22;;;2.50;;
54517;SDS011;40423;53.176;6.002;2023-07-22T00:10:34;5.20;;;2.65;;
54517;SDS011;40423;53.176;6.002;2023-07-22T00:12:59;6.38;;;2.80;;
54517;SDS011;40423;53.176;6.002;2023-07-22T00:15:26;6.57;;;2.50;;
54517;SDS011;40423;53.176;6.002;2023-07-22T00:17:52;5.50;;;2.80;;
54517;SDS011;40423;53.176;6.002;2023-07-22T00:20:18;6.63;;;2.92;;
54517;SDS011;40423;53.176;6.002;2023-07-22T00:22:45;4.55;;;2.40;;
54517;SDS011;40423;53.176;6.002;2023-07-22T00:25:10;7.18;;;2.30;;
54517;SDS011;40423;53.176;6.002;2023-07-22T00:27:42;5.85;;;3.13;;
54517;SDS011;40423;53.176;6.002;2023-07-22T00:30:08;3.83;;;2.30;;
54517;SDS011;40423;53.176;6.002;2023-07-22T00:32:35;7.85;;;2.47;;
54517;SDS011;40423;53.176;6.002;2023-07-22T00:35:04;6.32;;;2.90;;
54517;SDS011;40423;53.176;6.002;2023-07-22T00:37:31;4.38;;;2.53;;
54517;SDS011;40423;53.176;6.002;2023-07-22T00:39:57;3.55;;;2.10;;
54517;SDS011;40423;53.176;6.002;2023-07-22T00:42:24;4.50;;;2.10;;
54517;SDS011;40423;53.176;6.002;2023-07-22T00:44:50;4.13;;;2.40;;
54517;SDS011;40423;53.176;6.002;2023-07-22T00:47:15;7.93;;;2.60;;
54517;SDS011;40423;53.176;6.002;2023-07-22T00:49:42;3.97;;;2.15;;
54517;SDS011;40423;53.176;6.002;2023-07-22T00:52:09;5.03;;;1.90;;
54517;SDS011;40423;53.176;6.002;2023-07-22T00:54:35;3.63;;;1.75;;
54517;SDS011;40423;53.176;6.002;2023-07-22T00:57:00;6.57;;;2.22;;
54517;SDS011;40423;53.176;6.002;2023-07-22T00:59:26;4.40;;;2.13;;
54517;SDS011;40423;53.176;6.002;2023-07-22T01:01:53;3.17;;;1.80;;
54517;SDS011;40423;53.176;6.002;2023-07-22T01:04:19;4.82;;;2.25;;
54517;SDS011;40423;53.176;6.002;2023-07-22T01:06:48;5.75;;;2.45;;
54517;SDS011;40423;53.176;6.002;2023-07-22T01:09:15;3.95;;;1.88;;
54517;SDS011;40423;53.176;6.002;2023-07-22T01:11:41;4.32;;;1.90;;
54517;SDS011;40423;53.176;6.002;2023-07-22T01:14:09;3.17;;;1.85;;
54517;SDS011;40423;53.176;6.002;2023-07-22T01:16:34;4.57;;;2.20;;
54517;SDS011;40423;53.176;6.002;2023-07-22T01:19:01;6.18;;;1.95;;
54517;SDS011;40423;53.176;6.002;2023-07-22T01:21:29;6.15;;;2.08;;
54517;SDS011;40423;53.176;6.002;2023-07-22T01:23:57;4.15;;;2.10;;
54517;SDS011;40423;53.176;6.002;2023-07-22T01:26:23;4.82;;;2.10;;
54517;SDS011;40423;53.176;6.002;2023-07-22T01:28:49;4.82;;;2.40;;
54517;SDS011;40423;53.176;6.002;2023-07-22T01:31:15;4.32;;;2.15;;
54517;SDS011;40423;53.176;6.002;2023-07-22T01:33:40;5.00;;;2.40;;
54517;SDS011;40423;53.176;6.002;2023-07-22T01:36:06;6.60;;;3.30;;
54517;SDS011;40423;53.176;6.002;2023-07-22T01:38:32;6.03;;;2.78;;
54517;SDS011;40423;53.176;6.002;2023-07-22T01:40:59;5.65;;;1.88;;
54517;SDS011;40423;53.176;6.002;2023-07-22T01:43:25;3.83;;;2.10;;
54517;SDS011;40423;53.176;6.002;2023-07-22T01:45:50;6.32;;;2.13;;
54517;SDS011;40423;53.176;6.002;2023-07-22T01:48:18;5.30;;;2.35;;
54517;SDS011;40423;53.176;6.002;2023-07-22T01:50:43;4.68;;;2.35;;
54517;SDS011;40423;53.176;6.002;2023-07-22T01:53:10;4.78;;;2.50;;
54517;SDS011;40423;53.176;6.002;2023-07-22T01:55:35;4.82;;;2.25;;
54517;SDS011;40423;53.176;6.002;2023-07-22T01:58:01;5.53;;;2.33;;
54517;SDS011;40423;53.176;6.002;2023-07-22T02:00:27;4.60;;;2.40;;
54517;SDS011;40423;53.176;6.002;2023-07-22T02:02:53;7.30;;;2.78;;
54517;SDS011;40423;53.176;6.002;2023-07-22T02:05:19;3.55;;;1.95;;
54517;SDS011;40423;53.176;6.002;2023-07-22T02:07:46;6.55;;;3.03;;
54517;SDS011;40423;53.176;6.002;2023-07-22T02:10:11;9.95;;;2.72;;
54517;SDS011;40423;53.176;6.002;2023-07-22T02:12:38;5.82;;;2.22;;
54517;SDS011;40423;53.176;6.002;2023-07-22T02:15:04;5.10;;;2.17;;
54517;SDS011;40423;53.176;6.002;2023-07-22T02:17:30;3.70;;;2.15;;
54517;SDS011;40423;53.176;6.002;2023-07-22T02:19:56;6.68;;;2.45;;
54517;SDS011;40423;53.176;6.002;2023-07-22T02:25:30;4.22;;;2.60;;
54517;SDS011;40423;53.176;6.002;2023-07-22T02:27:56;5.38;;;2.78;;
54517;SDS011;40423;53.176;6.002;2023-07-22T02:30:21;5.90;;;2.90;;
54517;SDS011;40423;53.176;6.002;2023-07-22T02:32:47;4.38;;;2.80;;
54517;SDS011;40423;53.176;6.002;2023-07-22T02:35:13;5.82;;;3.30;;
54517;SDS011;40423;53.176;6.002;2023-07-22T02:37:39;8.65;;;3.15;;
54517;SDS011;40423;53.176;6.002;2023-07-22T02:40:04;3.90;;;2.63;;
54517;SDS011;40423;53.176;6.002;2023-07-22T02:42:33;6.95;;;2.75;;
54517;SDS011;40423;53.176;6.002;2023-07-22T02:45:00;6.25;;;2.78;;
54517;SDS011;40423;53.176;6.002;2023-07-22T02:47:27;6.03;;;3.72;;
54517;SDS011;40423;53.176;6.002;2023-07-22T02:49:53;5.13;;;2.83;;
54517;SDS011;40423;53.176;6.002;2023-07-22T02:52:19;5.75;;;2.53;;
54517;SDS011;40423;53.176;6.002;2023-07-22T02:55:03;5.38;;;3.20;;
54517;SDS011;40423;53.176;6.002;2023-07-22T02:57:30;6.82;;;3.10;;
54517;SDS011;40423;53.176;6.002;2023-07-22T02:59:56;4.63;;;2.90;;
54517;SDS011;40423;53.176;6.002;2023-07-22T03:02:22;7.30;;;3.08;;
54517;SDS011;40423;53.176;6.002;2023-07-22T03:04:47;5.22;;;3.00;;
54517;SDS011;40423;53.176;6.002;2023-07-22T03:07:13;7.35;;;3.33;;
54517;SDS011;40423;53.176;6.002;2023-07-22T03:09:39;9.68;;;3.08;;
54517;SDS011;40423;53.176;6.002;2023-07-22T03:12:05;7.05;;;3.33;;
54517;SDS011;40423;53.176;6.002;2023-07-22T03:14:31;4.60;;;2.83;;
54517;SDS011;40423;53.176;6.002;2023-07-22T03:17:02;5.13;;;2.80;;
54517;SDS011;40423;53.176;6.002;2023-07-22T03:19:29;4.82;;;2.60;;
54517;SDS011;40423;53.176;6.002;2023-07-22T03:21:55;6.07;;;3.15;;
54517;SDS011;40423;53.176;6.002;2023-07-22T03:24:20;5.40;;;2.70;;
54517;SDS011;40423;53.176;6.002;2023-07-22T03:26:46;4.13;;;2.88;;
54517;SDS011;40423;53.176;6.002;2023-07-22T03:29:12;7.20;;;3.08;;
54517;SDS011;40423;53.176;6.002;2023-07-22T03:31:37;6.35;;;3.22;;
54517;SDS011;40423;53.176;6.002;2023-07-22T03:34:04;6.75;;;3.38;;
54517;SDS011;40423;53.176;6.002;2023-07-22T03:36:29;7.47;;;3.70;;
54517;SDS011;40423;53.176;6.002;2023-07-22T03:38:58;7.45;;;3.65;;
54517;SDS011;40423;53.176;6.002;2023-07-22T03:41:25;5.90;;;4.13;;
54517;SDS011;40423;53.176;6.002;2023-07-22T03:43:51;5.13;;;3.13;;
54517;SDS011;40423;53.176;6.002;2023-07-22T03:46:16;5.30;;;3.17;;
54517;SDS011;40423;53.176;6.002;2023-07-22T03:48:42;7.90;;;3.30;;
54517;SDS011;40423;53.176;6.002;2023-07-22T03:51:08;7.32;;;3.38;;
54517;SDS011;40423;53.176;6.002;2023-07-22T03:53:33;6.93;;;3.22;;
54517;SDS011;40423;53.176;6.002;2023-07-22T03:55:59;7.72;;;3.28;;
54517;SDS011;40423;53.176;6.002;2023-07-22T03:58:25;8.98;;;3.90;;
54517;SDS011;40423;53.176;6.002;2023-07-22T04:00:50;6.22;;;3.15;;
54517;SDS011;40423;53.176;6.002;2023-07-22T04:03:16;6.53;;;3.80;;
54517;SDS011;40423;53.176;6.002;2023-07-22T04:05:42;5.88;;;3.75;;
54517;SDS011;40423;53.176;6.002;2023-07-22T04:08:08;5.85;;;3.67;;
54517;SDS011;40423;53.176;6.002;2023-07-22T04:10:33;7.55;;;3.78;;
54517;SDS011;40423;53.176;6.002;2023-07-22T04:12:59;11.30;;;3.67;;
54517;SDS011;40423;53.176;6.002;2023-07-22T04:17:57;6.85;;;4.50;;
54517;SDS011;40423;53.176;6.002;2023-07-22T04:20:22;9.10;;;4.68;;
54517;SDS011;40423;53.176;6.002;2023-07-22T04:22:50;8.40;;;4.78;;
54517;SDS011;40423;53.176;6.002;2023-07-22T04:25:15;9.48;;;5.30;;
54517;SDS011;40423;53.176;6.002;2023-07-22T04:27:41;9.00;;;5.65;;
54517;SDS011;40423;53.176;6.002;2023-07-22T04:30:07;11.63;;;5.55;;
54517;SDS011;40423;53.176;6.002;2023-07-22T04:32:33;9.68;;;5.63;;
54517;SDS011;40423;53.176;6.002;2023-07-22T04:34:58;10.48;;;5.75;;
54517;SDS011;40423;53.176;6.002;2023-07-22T04:37:24;13.20;;;6.75;;
54517;SDS011;40423;53.176;6.002;2023-07-22T04:39:50;10.73;;;6.32;;
54517;SDS011;40423;53.176;6.002;2023-07-22T04:42:15;11.65;;;6.40;;
54517;SDS011;40423;53.176;6.002;2023-07-22T04:44:41;9.48;;;5.63;;
54517;SDS011;40423;53.176;6.002;2023-07-22T04:47:09;10.75;;;6.43;;
54517;SDS011;40423;53.176;6.002;2023-07-22T04:49:35;11.93;;;6.70;;
54517;SDS011;40423;53.176;6.002;2023-07-22T04:52:01;10.75;;;6.57;;
54517;SDS011;40423;53.176;6.002;2023-07-22T04:54:27;10.85;;;6.55;;
54517;SDS011;40423;53.176;6.002;2023-07-22T04:56:53;13.40;;;7.40;;
54517;SDS011;40423;53.176;6.002;2023-07-22T04:59:19;10.43;;;6.13;;
54517;SDS011;40423;53.176;6.002;2023-07-22T05:01:44;11.00;;;7.15;;
54517;SDS011;40423;53.176;6.002;2023-07-22T05:04:10;10.48;;;6.28;;
54517;SDS011;40423;53.176;6.002;2023-07-22T05:06:36;11.13;;;6.97;;
54517;SDS011;40423;53.176;6.002;2023-07-22T05:09:01;11.77;;;6.78;;
54517;SDS011;40423;53.176;6.002;2023-07-22T05:11:28;10.45;;;6.13;;
54517;SDS011;40423;53.176;6.002;2023-07-22T05:13:54;9.52;;;5.35;;
54517;SDS011;40423;53.176;6.002;2023-07-22T05:16:19;11.27;;;6.30;;
54517;SDS011;40423;53.176;6.002;2023-07-22T05:18:46;15.50;;;6.90;;
54517;SDS011;40423;53.176;6.002;2023-07-22T05:21:12;11.15;;;6.50;;
54517;SDS011;40423;53.176;6.002;2023-07-22T05:23:37;12.15;;;6.50;;
54517;SDS011;40423;53.176;6.002;2023-07-22T05:26:03;11.25;;;6.90;;
54517;SDS011;40423;53.176;6.002;2023-07-22T05:28:29;10.98;;;7.03;;
54517;SDS011;40423;53.176;6.002;2023-07-22T05:30:55;12.93;;;6.88;;
54517;SDS011;40423;53.176;6.002;2023-07-22T05:33:21;8.25;;;5.93;;
54517;SDS011;40423;53.176;6.002;2023-07-22T05:35:47;12.75;;;7.68;;
54517;SDS011;40423;53.176;6.002;2023-07-22T05:38:12;12.85;;;6.93;;
54517;SDS011;40423;53.176;6.002;2023-07-22T05:40:38;12.18;;;7.60;;
54517;SDS011;40423;53.176;6.002;2023-07-22T05:43:04;12.93;;;7.65;;
54517;SDS011;40423;53.176;6.002;2023-07-22T05:45:29;12.88;;;7.50;;
54517;SDS011;40423;53.176;6.002;2023-07-22T05:47:55;12.25;;;7.30;;
54517;SDS011;40423;53.176;6.002;2023-07-22T05:50:21;12.20;;;7.35;;
54517;SDS011;40423;53.176;6.002;2023-07-22T05:52:47;12.32;;;8.32;;
54517;SDS011;40423;53.176;6.002;2023-07-22T05:55:13;11.70;;;7.80;;
54517;SDS011;40423;53.176;6.002;2023-07-22T05:57:39;13.52;;;8.23;;
54517;SDS011;40423;53.176;6.002;2023-07-22T06:00:06;18.33;;;9.88;;
54517;SDS011;40423;53.176;6.002;2023-07-22T06:02:33;14.85;;;9.20;;
54517;SDS011;40423;53.176;6.002;2023-07-22T06:04:59;17.30;;;10.60;;
54517;SDS011;40423;53.176;6.002;2023-07-22T06:07:25;15.68;;;9.88;;
54517;SDS011;40423;53.176;6.002;2023-07-22T06:09:51;16.63;;;10.05;;
54517;SDS011;40423;53.176;6.002;2023-07-22T06:12:16;14.05;;;9.88;;
54517;SDS011;40423;53.176;6.002;2023-07-22T06:14:42;16.02;;;8.88;;
54517;SDS011;40423;53.176;6.002;2023-07-22T06:17:08;12.45;;;8.77;;
54517;SDS011;40423;53.176;6.002;2023-07-22T06:19:33;15.75;;;9.23;;
54517;SDS011;40423;53.176;6.002;2023-07-22T06:21:59;14.27;;;9.10;;
54517;SDS011;40423;53.176;6.002;2023-07-22T06:24:25;17.35;;;10.68;;
54517;SDS011;40423;53.176;6.002;2023-07-22T06:26:50;15.82;;;9.13;;
54517;SDS011;40423;53.176;6.002;2023-07-22T06:29:16;18.55;;;9.85;;
54517;SDS011;40423;53.176;6.002;2023-07-22T06:31:42;16.08;;;9.60;;
54517;SDS011;40423;53.176;6.002;2023-07-22T06:34:08;15.73;;;9.35;;
54517;SDS011;40423;53.176;6.002;2023-07-22T06:36:33;15.32;;;9.52;;
54517;SDS011;40423;53.176;6.002;2023-07-22T06:38:59;16.92;;;10.00;;
54517;SDS011;40423;53.176;6.002;2023-07-22T06:41:25;17.08;;;9.95;;
54517;SDS011;40423;53.176;6.002;2023-07-22T06:43:50;17.77;;;11.10;;
54517;SDS011;40423;53.176;6.002;2023-07-22T06:46:16;16.48;;;10.85;;
54517;SDS011;40423;53.176;6.002;2023-07-22T06:48:42;18.48;;;10.55;;
54517;SDS011;40423;53.176;6.002;2023-07-22T06:51:08;16.10;;;10.85;;
54517;SDS011;40423;53.176;6.002;2023-07-22T06:53:33;16.55;;;10.52;;
54517;SDS011;40423;53.176;6.002;2023-07-22T06:55:59;15.77;;;10.65;;
54517;SDS011;40423;53.176;6.002;2023-07-22T06:58:25;17.00;;;10.15;;
54517;SDS011;40423;53.176;6.002;2023-07-22T07:00:52;15.88;;;10.93;;
54517;SDS011;40423;53.176;6.002;2023-07-22T07:03:19;16.05;;;11.20;;
54517;SDS011;40423;53.176;6.002;2023-07-22T07:05:51;17.85;;;11.05;;
54517;SDS011;40423;53.176;6.002;2023-07-22T07:08:20;16.95;;;10.70;;
54517;SDS011;40423;53.176;6.002;2023-07-22T07:10:47;16.60;;;11.48;;
54517;SDS011;40423;53.176;6.002;2023-07-22T07:13:12;18.00;;;11.90;;
54517;SDS011;40423;53.176;6.002;2023-07-22T07:15:38;18.50;;;11.85;;
54517;SDS011;40423;53.176;6.002;2023-07-22T07:18:04;15.43;;;10.52;;
54517;SDS011;40423;53.176;6.002;2023-07-22T07:20:30;17.17;;;10.35;;
54517;SDS011;40423;53.176;6.002;2023-07-22T07:22:56;18.35;;;11.10;;
54517;SDS011;40423;53.176;6.002;2023-07-22T07:25:22;18.10;;;11.15;;
54517;SDS011;40423;53.176;6.002;2023-07-22T07:27:47;14.48;;;9.85;;
54517;SDS011;40423;53.176;6.002;2023-07-22T07:30:13;17.35;;;10.38;;
54517;SDS011;40423;53.176;6.002;2023-07-22T07:32:39;14.48;;;9.65;;
54517;SDS011;40423;53.176;6.002;2023-07-22T07:35:05;16.67;;;9.75;;
54517;SDS011;40423;53.176;6.002;2023-07-22T07:37:32;16.65;;;9.88;;
54517;SDS011;40423;53.176;6.002;2023-07-22T07:39:58;13.98;;;9.13;;
54517;SDS011;40423;53.176;6.002;2023-07-22T07:42:27;15.27;;;9.20;;
54517;SDS011;40423;53.176;6.002;2023-07-22T07:44:53;13.43;;;9.88;;
54517;SDS011;40423;53.176;6.002;2023-07-22T07:47:19;13.05;;;9.25;;
54517;SDS011;40423;53.176;6.002;2023-07-22T07:49:45;13.50;;;8.82;;
54517;SDS011;40423;53.176;6.002;2023-07-22T07:52:11;13.50;;;9.45;;
54517;SDS011;40423;53.176;6.002;2023-07-22T07:54:37;13.65;;;9.48;;
54517;SDS011;40423;53.176;6.002;2023-07-22T07:57:02;14.85;;;9.40;;
54517;SDS011;40423;53.176;6.002;2023-07-22T07:59:28;13.77;;;9.80;;
54517;SDS011;40423;53.176;6.002;2023-07-22T08:01:54;13.13;;;9.07;;
54517;SDS011;40423;53.176;6.002;2023-07-22T08:04:20;11.30;;;8.50;;
54517;SDS011;40423;53.176;6.002;2023-07-22T08:06:45;11.88;;;9.07;;
54517;SDS011;40423;53.176;6.002;2023-07-22T08:09:11;12.38;;;8.32;;
54517;SDS011;40423;53.176;6.002;2023-07-22T08:11:43;10.80;;;7.45;;
54517;SDS011;40423;53.176;6.002;2023-07-22T08:14:09;9.90;;;7.47;;
54517;SDS011;40423;53.176;6.002;2023-07-22T08:16:35;11.68;;;6.43;;
54517;SDS011;40423;53.176;6.002;2023-07-22T08:19:01;11.00;;;6.47;;
54517;SDS011;40423;53.176;6.002;2023-07-22T08:21:26;11.20;;;7.05;;
54517;SDS011;40423;53.176;6.002;2023-07-22T08:23:52;10.50;;;7.45;;
54517;SDS011;40423;53.176;6.002;2023-07-22T08:26:18;13.05;;;8.55;;
54517;SDS011;40423;53.176;6.002;2023-07-22T08:28:46;11.57;;;8.13;;
54517;SDS011;40423;53.176;6.002;2023-07-22T08:31:12;10.68;;;7.55;;
54517;SDS011;40423;53.176;6.002;2023-07-22T08:33:38;12.98;;;8.18;;
54517;SDS011;40423;53.176;6.002;2023-07-22T08:36:04;10.57;;;7.97;;
54517;SDS011;40423;53.176;6.002;2023-07-22T08:41:34;12.07;;;7.65;;
54517;SDS011;40423;53.176;6.002;2023-07-22T08:44:01;11.63;;;7.90;;
54517;SDS011;40423;53.176;6.002;2023-07-22T08:46:29;12.93;;;9.80;;
54517;SDS011;40423;53.176;6.002;2023-07-22T08:48:59;13.20;;;9.15;;
54517;SDS011;40423;53.176;6.002;2023-07-22T08:51:25;12.63;;;8.10;;
54517;SDS011;40423;53.176;6.002;2023-07-22T08:53:57;15.52;;;8.90;;
54517;SDS011;40423;53.176;6.002;2023-07-22T08:56:24;14.70;;;10.32;;
54517;SDS011;40423;53.176;6.002;2023-07-22T08:58:54;16.00;;;9.88;;
54517;SDS011;40423;53.176;6.002;2023-07-22T09:01:21;25.92;;;15.35;;
54517;SDS011;40423;53.176;6.002;2023-07-22T09:03:48;20.33;;;13.85;;
54517;SDS011;40423;53.176;6.002;2023-07-22T09:06:18;21.92;;;15.18;;
54517;SDS011;40423;53.176;6.002;2023-07-22T09:08:45;30.90;;;18.25;;
54517;SDS011;40423;53.176;6.002;2023-07-22T09:11:18;29.20;;;19.50;;
54517;SDS011;40423;53.176;6.002;2023-07-22T09:13:45;29.05;;;20.35;;
54517;SDS011;40423;53.176;6.002;2023-07-22T09:16:12;26.23;;;18.48;;
54517;SDS011;40423;53.176;6.002;2023-07-22T09:18:38;28.05;;;19.60;;
54517;SDS011;40423;53.176;6.002;2023-07-22T09:21:04;24.42;;;16.75;;
54517;SDS011;40423;53.176;6.002;2023-07-22T09:23:36;21.35;;;13.70;;
54517;SDS011;40423;53.176;6.002;2023-07-22T09:26:10;17.08;;;11.77;;
54517;SDS011;40423;53.176;6.002;2023-07-22T09:31:19;18.23;;;11.57;;
54517;SDS011;40423;53.176;6.002;2023-07-22T09:33:49;16.52;;;10.70;;
54517;SDS011;40423;53.176;6.002;2023-07-22T09:36:15;16.42;;;10.93;;
54517;SDS011;40423;53.176;6.002;2023-07-22T09:38:41;14.25;;;9.57;;
54517;SDS011;40423;53.176;6.002;2023-07-22T09:41:07;15.25;;;9.68;;
54517;SDS011;40423;53.176;6.002;2023-07-22T09:43:40;13.90;;;9.73;;
54517;SDS011;40423;53.176;6.002;2023-07-22T09:46:09;13.93;;;9.60;;
54517;SDS011;40423;53.176;6.002;2023-07-22T09:48:39;13.68;;;8.32;;
54517;SDS011;40423;53.176;6.002;2023-07-22T09:51:05;13.27;;;8.48;;
54517;SDS011;40423;53.176;6.002;2023-07-22T09:53:36;12.45;;;8.93;;
54517;SDS011;40423;53.176;6.002;2023-07-22T09:56:04;11.55;;;8.07;;
54517;SDS011;40423;53.176;6.002;2023-07-22T09:58:30;12.50;;;7.47;;
54517;SDS011;40423;53.176;6.002;2023-07-22T10:00:57;12.43;;;7.95;;
54517;SDS011;40423;53.176;6.002;2023-07-22T10:03:27;10.05;;;7.13;;
54517;SDS011;40423;53.176;6.002;2023-07-22T10:05:55;13.73;;;7.65;;
54517;SDS011;40423;53.176;6.002;2023-07-22T10:08:25;9.93;;;7.03;;
54517;SDS011;40423;53.176;6.002;2023-07-22T10:10:55;8.15;;;6.60;;
54517;SDS011;40423;53.176;6.002;2023-07-22T10:13:24;9.18;;;6.80;;
54517;SDS011;40423;53.176;6.002;2023-07-22T10:15:51;9.55;;;6.93;;
54517;SDS011;40423;53.176;6.002;2023-07-22T10:18:17;9.20;;;6.43;;
54517;SDS011;40423;53.176;6.002;2023-07-22T10:20:45;8.68;;;6.65;;
54517;SDS011;40423;53.176;6.002;2023-07-22T10:23:12;10.85;;;6.22;;
54517;SDS011;40423;53.176;6.002;2023-07-22T10:25:39;11.25;;;5.80;;
54517;SDS011;40423;53.176;6.002;2023-07-22T10:28:07;8.55;;;5.38;;
54517;SDS011;40423;53.176;6.002;2023-07-22T10:30:33;6.13;;;5.22;;
54517;SDS011;40423;53.176;6.002;2023-07-22T10:32:59;9.85;;;5.28;;
54517;SDS011;40423;53.176;6.002;2023-07-22T10:38:17;5.10;;;4.20;;
54517;SDS011;40423;53.176;6.002;2023-07-22T10:40:46;6.72;;;4.55;;
54517;SDS011;40423;53.176;6.002;2023-07-22T10:43:18;6.18;;;4.22;;
54517;SDS011;40423;53.176;6.002;2023-07-22T10:45:53;8.32;;;4.95;;
54517;SDS011;40423;53.176;6.002;2023-07-22T10:48:22;5.25;;;4.00;;
54517;SDS011;40423;53.176;6.002;2023-07-22T10:50:54;6.32;;;4.88;;
54517;SDS011;40423;53.176;6.002;2023-07-22T10:53:29;7.10;;;5.03;;
54517;SDS011;40423;53.176;6.002;2023-07-22T10:58:37;5.47;;;4.60;;
54517;SDS011;40423;53.176;6.002;2023-07-22T11:11:55;6.88;;;5.28;;
54517;SDS011;40423;53.176;6.002;2023-07-22T11:14:23;10.32;;;4.85;;
54517;SDS011;40423;53.176;6.002;2023-07-22T11:16:50;7.43;;;4.75;;
54517;SDS011;40423;53.176;6.002;2023-07-22T11:19:17;6.72;;;5.05;;
54517;SDS011;40423;53.176;6.002;2023-07-22T11:21:45;6.32;;;4.07;;
54517;SDS011;40423;53.176;6.002;2023-07-22T11:24:11;6.55;;;4.57;;
54517;SDS011;40423;53.176;6.002;2023-07-22T11:26:37;6.95;;;5.18;;
54517;SDS011;40423;53.176;6.002;2023-07-22T11:29:04;6.90;;;5.00;;
54517;SDS011;40423;53.176;6.002;2023-07-22T11:31:41;6.35;;;5.13;;
54517;SDS011;40423;53.176;6.002;2023-07-22T11:34:09;7.50;;;5.55;;
54517;SDS011;40423;53.176;6.002;2023-07-22T11:36:36;8.57;;;5.82;;
54517;SDS011;40423;53.176;6.002;2023-07-22T11:39:03;8.25;;;6.32;;
54517;SDS011;40423;53.176;6.002;2023-07-22T11:41:30;7.93;;;6.05;;
54517;SDS011;40423;53.176;6.002;2023-07-22T11:43:58;10.65;;;6.53;;
54517;SDS011;40423;53.176;6.002;2023-07-22T11:46:24;10.07;;;7.40;;
54517;SDS011;40423;53.176;6.002;2023-07-22T11:48:51;10.75;;;6.53;;
54517;SDS011;40423;53.176;6.002;2023-07-22T11:51:21;7.22;;;5.93;;
54517;SDS011;40423;53.176;6.002;2023-07-22T11:53:50;7.88;;;6.28;;
54517;SDS011;40423;53.176;6.002;2023-07-22T11:56:21;7.50;;;4.30;;
54517;SDS011;40423;53.176;6.002;2023-07-22T11:58:49;4.97;;;3.75;;
54517;SDS011;40423;53.176;6.002;2023-07-22T12:01:20;5.13;;;3.63;;
54517;SDS011;40423;53.176;6.002;2023-07-22T12:03:46;5.97;;;4.38;;
54517;SDS011;40423;53.176;6.002;2023-07-22T12:06:13;4.78;;;3.30;;
54517;SDS011;40423;53.176;6.002;2023-07-22T12:08:44;4.95;;;3.35;;
54517;SDS011;40423;53.176;6.002;2023-07-22T12:11:17;4.70;;;3.30;;
54517;SDS011;40423;53.176;6.002;2023-07-22T12:13:43;5.15;;;3.80;;
54517;SDS011;40423;53.176;6.002;2023-07-22T12:16:20;5.95;;;3.58;;
54517;SDS011;40423;53.176;6.002;2023-07-22T12:18:49;8.80;;;4.82;;
54517;SDS011;40423;53.176;6.002;2023-07-22T12:21:15;5.85;;;4.72;;
54517;SDS011;40423;53.176;6.002;2023-07-22T12:23:41;9.23;;;4.93;;
54517;SDS011;40423;53.176;6.002;2023-07-22T12:26:08;6.07;;;4.60;;
54517;SDS011;40423;53.176;6.002;2023-07-22T12:28:34;7.20;;;5.20;;
54517;SDS011;40423;53.176;6.002;2023-07-22T12:31:00;9.52;;;4.75;;
54517;SDS011;40423;53.176;6.002;2023-07-22T12:33:26;6.45;;;4.90;;
54517;SDS011;40423;53.176;6.002;2023-07-22T12:35:53;7.60;;;4.93;;
54517;SDS011;40423;53.176;6.002;2023-07-22T12:38:20;7.03;;;5.93;;
54517;SDS011;40423;53.176;6.002;2023-07-22T12:40:46;8.23;;;5.80;;
54517;SDS011;40423;53.176;6.002;2023-07-22T12:43:12;8.70;;;5.93;;
54517;SDS011;40423;53.176;6.002;2023-07-22T12:45:37;8.10;;;6.40;;
54517;SDS011;40423;53.176;6.002;2023-07-22T12:48:03;11.27;;;6.80;;
54517;SDS011;40423;53.176;6.002;2023-07-22T12:50:30;8.93;;;6.03;;
54517;SDS011;40423;53.176;6.002;2023-07-22T12:52:57;9.55;;;6.55;;
54517;SDS011;40423;53.176;6.002;2023-07-22T12:55:23;8.32;;;6.30;;
54517;SDS011;40423;53.176;6.002;2023-07-22T12:57:54;7.47;;;5.88;;
54517;SDS011;40423;53.176;6.002;2023-07-22T13:00:23;12.27;;;6.90;;
54517;SDS011;40423;53.176;6.002;2023-07-22T13:02:48;9.70;;;6.13;;
54517;SDS011;40423;53.176;6.002;2023-07-22T13:05:14;10.05;;;5.68;;
54517;SDS011;40423;53.176;6.002;2023-07-22T13:07:40;6.82;;;4.72;;
54517;SDS011;40423;53.176;6.002;2023-07-22T13:10:06;8.70;;;4.70;;
54517;SDS011;40423;53.176;6.002;2023-07-22T13:12:36;9.15;;;4.93;;
54517;SDS011;40423;53.176;6.002;2023-07-22T13:15:02;8.10;;;5.05;;
54517;SDS011;40423;53.176;6.002;2023-07-22T13:17:28;7.57;;;4.53;;
54517;SDS011;40423;53.176;6.002;2023-07-22T13:19:54;8.18;;;4.90;;
54517;SDS011;40423;53.176;6.002;2023-07-22T13:22:33;7.30;;;3.88;;
54517;SDS011;40423;53.176;6.002;2023-07-22T13:24:59;7.63;;;4.60;;
54517;SDS011;40423;53.176;6.002;2023-07-22T13:27:24;5.63;;;4.00;;
54517;SDS011;40423;53.176;6.002;2023-07-22T13:29:50;6.53;;;4.03;;
54517;SDS011;40423;53.176;6.002;2023-07-22T13:32:16;9.07;;;4.50;;
54517;SDS011;40423;53.176;6.002;2023-07-22T13:34:41;7.13;;;3.33;;
54517;SDS011;40423;53.176;6.002;2023-07-22T13:37:07;5.60;;;3.30;;
54517;SDS011;40423;53.176;6.002;2023-07-22T13:39:33;8.75;;;3.83;;
54517;SDS011;40423;53.176;6.002;2023-07-22T13:41:59;9.93;;;4.15;;
54517;SDS011;40423;53.176;6.002;2023-07-22T13:44:24;8.05;;;3.50;;
54517;SDS011;40423;53.176;6.002;2023-07-22T13:46:50;8.13;;;3.80;;
54517;SDS011;40423;53.176;6.002;2023-07-22T13:49:16;9.70;;;4.10;;
54517;SDS011;40423;53.176;6.002;2023-07-22T13:51:43;6.25;;;3.28;;
54517;SDS011;40423;53.176;6.002;2023-07-22T13:54:09;8.93;;;3.60;;
54517;SDS011;40423;53.176;6.002;2023-07-22T13:56:35;8.63;;;3.67;;
54517;SDS011;40423;53.176;6.002;2023-07-22T13:59:00;7.28;;;4.15;;
54517;SDS011;40423;53.176;6.002;2023-07-22T14:01:28;9.07;;;3.75;;
54517;SDS011;40423;53.176;6.002;2023-07-22T14:03:54;11.55;;;4.30;;
54517;SDS011;40423;53.176;6.002;2023-07-22T14:06:20;6.70;;;3.92;;
54517;SDS011;40423;53.176;6.002;2023-07-22T14:08:46;8.80;;;4.38;;
54517;SDS011;40423;53.176;6.002;2023-07-22T14:11:11;7.97;;;4.28;;
54517;SDS011;40423;53.176;6.002;2023-07-22T14:13:37;10.07;;;4.15;;
54517;SDS011;40423;53.176;6.002;2023-07-22T14:16:03;7.95;;;4.25;;
54517;SDS011;40423;53.176;6.002;2023-07-22T14:18:29;9.50;;;4.93;;
54517;SDS011;40423;53.176;6.002;2023-07-22T14:20:55;6.35;;;4.15;;
54517;SDS011;40423;53.176;6.002;2023-07-22T14:23:20;9.80;;;4.82;;
54517;SDS011;40423;53.176;6.002;2023-07-22T14:25:46;9.70;;;5.03;;
54517;SDS011;40423;53.176;6.002;2023-07-22T14:28:12;6.50;;;4.22;;
54517;SDS011;40423;53.176;6.002;2023-07-22T14:30:38;9.07;;;5.32;;
54517;SDS011;40423;53.176;6.002;2023-07-22T14:33:03;9.60;;;4.07;;
54517;SDS011;40423;53.176;6.002;2023-07-22T14:35:30;7.65;;;4.10;;
54517;SDS011;40423;53.176;6.002;2023-07-22T14:37:57;8.50;;;4.13;;
54517;SDS011;40423;53.176;6.002;2023-07-22T14:40:25;8.10;;;4.20;;
54517;SDS011;40423;53.176;6.002;2023-07-22T14:42:50;5.32;;;3.85;;
54517;SDS011;40423;53.176;6.002;2023-07-22T14:45:16;6.05;;;3.95;;
54517;SDS011;40423;53.176;6.002;2023-07-22T14:47:42;8.93;;;4.05;;
54517;SDS011;40423;53.176;6.002;2023-07-22T14:50:08;9.30;;;4.03;;
54517;SDS011;40423;53.176;6.002;2023-07-22T14:52:34;9.70;;;3.47;;
54517;SDS011;40423;53.176;6.002;2023-07-22T14:55:00;9.60;;;4.25;;
54517;SDS011;40423;53.176;6.002;2023-07-22T14:57:26;7.43;;;3.35;;
54517;SDS011;40423;53.176;6.002;2023-07-22T14:59:54;7.97;;;2.97;;
54517;SDS011;40423;53.176;6.002;2023-07-22T15:02:20;5.93;;;3.33;;
54517;SDS011;40423;53.176;6.002;2023-07-22T15:04:47;7.68;;;3.38;;